sensor_id;sensor_type;location;lat;lon;timestamp;P1;durP1;ratioP1;P2;durP2;ratioP2
2299;SDS011;1158;48.750;9.078;2022-08-16T00:01:17;5.97;;;5.37;;
2299;SDS011;1158;48.750;9.078;2022-08-16T00:03:45;9.30;;;5.57;;
2299;SDS011;1158;48.750;9.078;2022-08-16T00:06:12;7.60;;;5.97;;
2299;SDS011;1158;48.750;9.078;2022-08-16T00:08:38;5.50;;;5.00;;
2299;SDS011;1158;48.750;9.078;2022-08-16T00:11:06;6.33;;;5.07;;
2299;SDS011;1158;48.750;9.078;2022-08-16T00:13:35;6.83;;;5.87;;
2299;SDS011;1158;48.750;9.078;2022-08-16T00:16:03;8.00;;;5.10;;
2299;SDS011;1158;48.750;9.078;2022-08-16T00:18:30;6.47;;;5.50;;
2299;SDS011;1158;48.750;9.078;2022-08-16T00:20:57;9.00;;;5.20;;
2299;SDS011;1158;48.750;9.078;2022-08-16T00:23:24;7.80;;;5.80;;
2299;SDS011;1158;48.750;9.078;2022-08-16T00:25:51;7.50;;;5.60;;
2299;SDS011;1158;48.750;9.078;2022-08-16T00:28:17;8.70;;;6.30;;
2299;SDS011;1158;48.750;9.078;2022-08-16T00:30:46;10.33;;;6.10;;
2299;SDS011;1158;48.750;9.078;2022-08-16T00:33:13;7.63;;;6.00;;
2299;SDS011;1158;48.750;9.078;2022-08-16T00:35:40;6.00;;;5.10;;
2299;SDS011;1158;48.750;9.078;2022-08-16T00:38:07;9.87;;;6.17;;
2299;SDS011;1158;48.750;9.078;2022-08-16T00:40:35;9.63;;;5.97;;
2299;SDS011;1158;48.750;9.078;2022-08-16T00:43:05;8.70;;;6.23;;
2299;SDS011;1158;48.750;9.078;2022-08-16T00:45:35;12.10;;;6.23;;
2299;SDS011;1158;48.750;9.078;2022-08-16T00:48:07;7.03;;;6.30;;
2299;SDS011;1158;48.750;9.078;2022-08-16T00:50:37;8.87;;;5.80;;
2299;SDS011;1158;48.750;9.078;2022-08-16T00:53:07;7.10;;;6.40;;
2299;SDS011;1158;48.750;9.078;2022-08-16T00:55:37;8.97;;;6.03;;
2299;SDS011;1158;48.750;9.078;2022-08-16T00:58:06;8.50;;;6.27;;
2299;SDS011;1158;48.750;9.078;2022-08-16T01:00:35;7.60;;;6.20;;
2299;SDS011;1158;48.750;9.078;2022-08-16T01:03:04;8.67;;;6.73;;
2299;SDS011;1158;48.750;9.078;2022-08-16T01:05:35;7.50;;;5.63;;
2299;SDS011;1158;48.750;9.078;2022-08-16T01:08:03;11.17;;;9.30;;
2299;SDS011;1158;48.750;9.078;2022-08-16T01:10:32;11.00;;;7.33;;
2299;SDS011;1158;48.750;9.078;2022-08-16T01:13:02;8.70;;;7.13;;
2299;SDS011;1158;48.750;9.078;2022-08-16T01:15:32;9.43;;;7.07;;
2299;SDS011;1158;48.750;9.078;2022-08-16T01:18:01;8.67;;;6.87;;
2299;SDS011;1158;48.750;9.078;2022-08-16T01:20:31;8.33;;;6.80;;
2299;SDS011;1158;48.750;9.078;2022-08-16T01:23:04;10.53;;;7.77;;
2299;SDS011;1158;48.750;9.078;2022-08-16T01:25:37;9.57;;;6.50;;
2299;SDS011;1158;48.750;9.078;2022-08-16T01:28:10;9.17;;;7.17;;
2299;SDS011;1158;48.750;9.078;2022-08-16T01:30:40;10.60;;;7.33;;
2299;SDS011;1158;48.750;9.078;2022-08-16T01:33:08;8.07;;;6.47;;
2299;SDS011;1158;48.750;9.078;2022-08-16T01:35:36;8.83;;;7.23;;
2299;SDS011;1158;48.750;9.078;2022-08-16T01:38:16;9.60;;;6.20;;
2299;SDS011;1158;48.750;9.078;2022-08-16T01:40:46;10.70;;;6.70;;
2299;SDS011;1158;48.750;9.078;2022-08-16T01:43:14;8.43;;;6.50;;
2299;SDS011;1158;48.750;9.078;2022-08-16T01:45:41;6.67;;;5.97;;
2299;SDS011;1158;48.750;9.078;2022-08-16T01:48:09;9.40;;;6.13;;
2299;SDS011;1158;48.750;9.078;2022-08-16T01:50:37;7.33;;;6.30;;
2299;SDS011;1158;48.750;9.078;2022-08-16T01:53:06;8.43;;;5.43;;
2299;SDS011;1158;48.750;9.078;2022-08-16T01:55:33;8.10;;;6.40;;
2299;SDS011;1158;48.750;9.078;2022-08-16T01:58:01;8.57;;;6.47;;
2299;SDS011;1158;48.750;9.078;2022-08-16T02:00:28;7.90;;;6.10;;
2299;SDS011;1158;48.750;9.078;2022-08-16T02:02:55;8.10;;;6.20;;
2299;SDS011;1158;48.750;9.078;2022-08-16T02:05:22;7.70;;;6.30;;
2299;SDS011;1158;48.750;9.078;2022-08-16T02:07:49;8.83;;;6.77;;
2299;SDS011;1158;48.750;9.078;2022-08-16T02:10:16;10.97;;;6.10;;
2299;SDS011;1158;48.750;9.078;2022-08-16T02:12:43;7.90;;;6.00;;
2299;SDS011;1158;48.750;9.078;2022-08-16T02:15:11;8.43;;;6.13;;
2299;SDS011;1158;48.750;9.078;2022-08-16T02:17:39;9.90;;;6.13;;
2299;SDS011;1158;48.750;9.078;2022-08-16T02:20:08;6.60;;;5.63;;
2299;SDS011;1158;48.750;9.078;2022-08-16T02:22:35;7.10;;;6.27;;
2299;SDS011;1158;48.750;9.078;2022-08-16T02:25:04;7.30;;;6.20;;
2299;SDS011;1158;48.750;9.078;2022-08-16T02:27:33;8.23;;;6.50;;
2299;SDS011;1158;48.750;9.078;2022-08-16T02:30:00;8.23;;;5.53;;
2299;SDS011;1158;48.750;9.078;2022-08-16T02:32:28;9.00;;;5.67;;
2299;SDS011;1158;48.750;9.078;2022-08-16T02:34:55;6.60;;;5.90;;
2299;SDS011;1158;48.750;9.078;2022-08-16T02:37:22;9.73;;;6.40;;
2299;SDS011;1158;48.750;9.078;2022-08-16T02:39:48;8.83;;;6.80;;
2299;SDS011;1158;48.750;9.078;2022-08-16T02:42:15;9.20;;;6.03;;
2299;SDS011;1158;48.750;9.078;2022-08-16T02:44:43;7.93;;;6.20;;
2299;SDS011;1158;48.750;9.078;2022-08-16T02:47:10;7.57;;;5.70;;
2299;SDS011;1158;48.750;9.078;2022-08-16T02:49:38;9.77;;;6.90;;
2299;SDS011;1158;48.750;9.078;2022-08-16T02:52:05;9.90;;;5.70;;
2299;SDS011;1158;48.750;9.078;2022-08-16T02:54:31;9.27;;;6.10;;
2299;SDS011;1158;48.750;9.078;2022-08-16T02:56:58;7.73;;;5.77;;
2299;SDS011;1158;48.750;9.078;2022-08-16T02:59:25;10.30;;;6.80;;
2299;SDS011;1158;48.750;9.078;2022-08-16T03:01:52;9.03;;;6.57;;
2299;SDS011;1158;48.750;9.078;2022-08-16T03:04:20;9.07;;;6.00;;
2299;SDS011;1158;48.750;9.078;2022-08-16T03:06:49;7.63;;;5.40;;
2299;SDS011;1158;48.750;9.078;2022-08-16T03:09:16;7.37;;;6.60;;
2299;SDS011;1158;48.750;9.078;2022-08-16T03:11:43;7.70;;;5.97;;
2299;SDS011;1158;48.750;9.078;2022-08-16T03:14:10;9.10;;;5.80;;
2299;SDS011;1158;48.750;9.078;2022-08-16T03:16:37;9.30;;;6.70;;
2299;SDS011;1158;48.750;9.078;2022-08-16T03:19:05;8.07;;;6.30;;
2299;SDS011;1158;48.750;9.078;2022-08-16T03:21:33;8.30;;;6.77;;
2299;SDS011;1158;48.750;9.078;2022-08-16T03:24:01;7.67;;;6.87;;
2299;SDS011;1158;48.750;9.078;2022-08-16T03:26:28;6.93;;;6.10;;
2299;SDS011;1158;48.750;9.078;2022-08-16T03:28:55;7.80;;;6.70;;
2299;SDS011;1158;48.750;9.078;2022-08-16T03:31:22;8.20;;;6.77;;
2299;SDS011;1158;48.750;9.078;2022-08-16T03:33:49;8.50;;;6.93;;
2299;SDS011;1158;48.750;9.078;2022-08-16T03:36:16;9.80;;;7.43;;
2299;SDS011;1158;48.750;9.078;2022-08-16T03:38:42;7.80;;;7.00;;
2299;SDS011;1158;48.750;9.078;2022-08-16T03:41:10;9.10;;;6.23;;
2299;SDS011;1158;48.750;9.078;2022-08-16T03:43:37;8.23;;;7.20;;
2299;SDS011;1158;48.750;9.078;2022-08-16T03:46:04;8.27;;;7.07;;
2299;SDS011;1158;48.750;9.078;2022-08-16T03:48:36;7.00;;;6.30;;
2299;SDS011;1158;48.750;9.078;2022-08-16T03:51:04;9.47;;;6.40;;
2299;SDS011;1158;48.750;9.078;2022-08-16T03:53:33;8.43;;;6.90;;
2299;SDS011;1158;48.750;9.078;2022-08-16T03:56:00;8.10;;;6.70;;
2299;SDS011;1158;48.750;9.078;2022-08-16T03:58:28;9.57;;;6.97;;
2299;SDS011;1158;48.750;9.078;2022-08-16T04:00:55;7.43;;;6.63;;
2299;SDS011;1158;48.750;9.078;2022-08-16T04:03:22;7.07;;;5.90;;
2299;SDS011;1158;48.750;9.078;2022-08-16T04:05:48;8.10;;;7.30;;
2299;SDS011;1158;48.750;9.078;2022-08-16T04:08:15;8.00;;;6.80;;
2299;SDS011;1158;48.750;9.078;2022-08-16T04:10:45;9.20;;;8.00;;
2299;SDS011;1158;48.750;9.078;2022-08-16T04:13:13;8.53;;;6.47;;
2299;SDS011;1158;48.750;9.078;2022-08-16T04:15:41;8.97;;;7.90;;
2299;SDS011;1158;48.750;9.078;2022-08-16T04:18:08;7.70;;;6.90;;
2299;SDS011;1158;48.750;9.078;2022-08-16T04:20:35;8.43;;;6.67;;
2299;SDS011;1158;48.750;9.078;2022-08-16T04:23:03;9.90;;;7.70;;
2299;SDS011;1158;48.750;9.078;2022-08-16T04:25:32;8.60;;;7.20;;
2299;SDS011;1158;48.750;9.078;2022-08-16T04:27:59;8.03;;;7.07;;
2299;SDS011;1158;48.750;9.078;2022-08-16T04:30:26;8.43;;;6.83;;
2299;SDS011;1158;48.750;9.078;2022-08-16T04:32:54;8.87;;;6.90;;
2299;SDS011;1158;48.750;9.078;2022-08-16T04:35:21;7.80;;;6.40;;
2299;SDS011;1158;48.750;9.078;2022-08-16T04:37:50;7.70;;;6.90;;
2299;SDS011;1158;48.750;9.078;2022-08-16T04:40:18;9.30;;;7.33;;
2299;SDS011;1158;48.750;9.078;2022-08-16T04:42:46;7.20;;;6.50;;
2299;SDS011;1158;48.750;9.078;2022-08-16T04:45:14;7.63;;;6.93;;
2299;SDS011;1158;48.750;9.078;2022-08-16T04:47:41;7.57;;;6.67;;
2299;SDS011;1158;48.750;9.078;2022-08-16T04:50:10;10.47;;;6.40;;
2299;SDS011;1158;48.750;9.078;2022-08-16T04:52:39;8.43;;;6.80;;
2299;SDS011;1158;48.750;9.078;2022-08-16T04:55:07;8.67;;;6.97;;
2299;SDS011;1158;48.750;9.078;2022-08-16T04:57:37;11.17;;;6.90;;
2299;SDS011;1158;48.750;9.078;2022-08-16T05:00:05;7.57;;;5.97;;
2299;SDS011;1158;48.750;9.078;2022-08-16T05:02:36;9.40;;;6.43;;
2299;SDS011;1158;48.750;9.078;2022-08-16T05:05:03;7.23;;;6.53;;
2299;SDS011;1158;48.750;9.078;2022-08-16T05:07:32;6.70;;;5.93;;
2299;SDS011;1158;48.750;9.078;2022-08-16T05:09:58;7.20;;;6.37;;
2299;SDS011;1158;48.750;9.078;2022-08-16T05:12:25;7.07;;;5.73;;
2299;SDS011;1158;48.750;9.078;2022-08-16T05:14:52;7.93;;;6.20;;
2299;SDS011;1158;48.750;9.078;2022-08-16T05:17:19;8.83;;;6.07;;
2299;SDS011;1158;48.750;9.078;2022-08-16T05:19:45;7.43;;;5.87;;
2299;SDS011;1158;48.750;9.078;2022-08-16T05:22:13;7.57;;;6.17;;
2299;SDS011;1158;48.750;9.078;2022-08-16T05:24:41;7.13;;;5.50;;
2299;SDS011;1158;48.750;9.078;2022-08-16T05:27:08;6.80;;;5.93;;
2299;SDS011;1158;48.750;9.078;2022-08-16T05:29:35;9.73;;;6.13;;
2299;SDS011;1158;48.750;9.078;2022-08-16T05:32:02;7.00;;;6.33;;
2299;SDS011;1158;48.750;9.078;2022-08-16T05:34:29;9.40;;;6.87;;
2299;SDS011;1158;48.750;9.078;2022-08-16T05:36:56;9.90;;;6.83;;
2299;SDS011;1158;48.750;9.078;2022-08-16T05:39:23;6.27;;;5.37;;
2299;SDS011;1158;48.750;9.078;2022-08-16T05:41:52;6.13;;;5.53;;
2299;SDS011;1158;48.750;9.078;2022-08-16T05:44:20;12.20;;;6.43;;
2299;SDS011;1158;48.750;9.078;2022-08-16T05:46:48;7.77;;;6.33;;
2299;SDS011;1158;48.750;9.078;2022-08-16T05:49:15;7.10;;;6.27;;
2299;SDS011;1158;48.750;9.078;2022-08-16T05:51:42;6.93;;;5.00;;
2299;SDS011;1158;48.750;9.078;2022-08-16T05:54:11;11.53;;;6.10;;
2299;SDS011;1158;48.750;9.078;2022-08-16T05:56:41;9.57;;;6.43;;
2299;SDS011;1158;48.750;9.078;2022-08-16T05:59:11;6.73;;;5.70;;
2299;SDS011;1158;48.750;9.078;2022-08-16T06:01:40;7.33;;;6.40;;
2299;SDS011;1158;48.750;9.078;2022-08-16T06:04:09;10.73;;;6.40;;
2299;SDS011;1158;48.750;9.078;2022-08-16T06:06:37;9.30;;;5.30;;
2299;SDS011;1158;48.750;9.078;2022-08-16T06:09:04;7.67;;;6.67;;
2299;SDS011;1158;48.750;9.078;2022-08-16T06:11:31;8.37;;;6.30;;
2299;SDS011;1158;48.750;9.078;2022-08-16T06:13:58;8.80;;;6.50;;
2299;SDS011;1158;48.750;9.078;2022-08-16T06:16:26;6.10;;;5.50;;
2299;SDS011;1158;48.750;9.078;2022-08-16T06:18:53;7.23;;;5.30;;
2299;SDS011;1158;48.750;9.078;2022-08-16T06:21:20;7.17;;;4.90;;
2299;SDS011;1158;48.750;9.078;2022-08-16T06:23:47;5.63;;;4.50;;
2299;SDS011;1158;48.750;9.078;2022-08-16T06:26:14;5.40;;;4.67;;
2299;SDS011;1158;48.750;9.078;2022-08-16T06:28:41;8.57;;;4.70;;
2299;SDS011;1158;48.750;9.078;2022-08-16T06:31:08;4.20;;;3.80;;
2299;SDS011;1158;48.750;9.078;2022-08-16T06:33:37;5.03;;;4.47;;
2299;SDS011;1158;48.750;9.078;2022-08-16T06:36:05;5.17;;;4.67;;
2299;SDS011;1158;48.750;9.078;2022-08-16T06:38:33;7.30;;;4.37;;
2299;SDS011;1158;48.750;9.078;2022-08-16T06:41:01;5.83;;;4.47;;
2299;SDS011;1158;48.750;9.078;2022-08-16T06:43:29;8.90;;;4.47;;
2299;SDS011;1158;48.750;9.078;2022-08-16T06:45:55;5.70;;;4.30;;
2299;SDS011;1158;48.750;9.078;2022-08-16T06:48:22;7.70;;;4.10;;
2299;SDS011;1158;48.750;9.078;2022-08-16T06:50:51;5.90;;;4.60;;
2299;SDS011;1158;48.750;9.078;2022-08-16T06:53:18;6.83;;;4.60;;
2299;SDS011;1158;48.750;9.078;2022-08-16T06:55:45;5.60;;;4.40;;
2299;SDS011;1158;48.750;9.078;2022-08-16T06:58:12;6.20;;;4.70;;
2299;SDS011;1158;48.750;9.078;2022-08-16T07:00:39;7.17;;;5.10;;
2299;SDS011;1158;48.750;9.078;2022-08-16T07:03:06;6.80;;;4.60;;
2299;SDS011;1158;48.750;9.078;2022-08-16T07:05:33;8.03;;;4.63;;
2299;SDS011;1158;48.750;9.078;2022-08-16T07:08:01;8.40;;;4.73;;
2299;SDS011;1158;48.750;9.078;2022-08-16T07:10:29;6.13;;;5.33;;
2299;SDS011;1158;48.750;9.078;2022-08-16T07:12:55;6.73;;;4.80;;
2299;SDS011;1158;48.750;9.078;2022-08-16T07:15:22;7.73;;;5.33;;
2299;SDS011;1158;48.750;9.078;2022-08-16T07:17:49;6.77;;;4.77;;
2299;SDS011;1158;48.750;9.078;2022-08-16T07:20:16;6.80;;;5.50;;
2299;SDS011;1158;48.750;9.078;2022-08-16T07:22:47;6.67;;;5.20;;
2299;SDS011;1158;48.750;9.078;2022-08-16T07:25:15;6.40;;;4.90;;
2299;SDS011;1158;48.750;9.078;2022-08-16T07:27:42;5.83;;;5.20;;
2299;SDS011;1158;48.750;9.078;2022-08-16T07:30:10;7.27;;;5.40;;
2299;SDS011;1158;48.750;9.078;2022-08-16T07:32:39;6.23;;;5.30;;
2299;SDS011;1158;48.750;9.078;2022-08-16T07:35:06;5.90;;;4.80;;
2299;SDS011;1158;48.750;9.078;2022-08-16T07:37:33;5.07;;;4.20;;
2299;SDS011;1158;48.750;9.078;2022-08-16T07:40:01;7.37;;;5.30;;
2299;SDS011;1158;48.750;9.078;2022-08-16T07:42:30;6.50;;;4.83;;
2299;SDS011;1158;48.750;9.078;2022-08-16T07:44:57;9.83;;;5.77;;
2299;SDS011;1158;48.750;9.078;2022-08-16T07:47:24;6.20;;;5.47;;
2299;SDS011;1158;48.750;9.078;2022-08-16T07:49:51;6.93;;;4.90;;
2299;SDS011;1158;48.750;9.078;2022-08-16T07:52:18;5.80;;;5.30;;
2299;SDS011;1158;48.750;9.078;2022-08-16T07:54:44;5.80;;;5.00;;
2299;SDS011;1158;48.750;9.078;2022-08-16T07:57:11;9.23;;;5.13;;
2299;SDS011;1158;48.750;9.078;2022-08-16T07:59:39;8.80;;;5.20;;
2299;SDS011;1158;48.750;9.078;2022-08-16T08:02:08;7.23;;;5.20;;
2299;SDS011;1158;48.750;9.078;2022-08-16T08:04:35;6.83;;;5.40;;
2299;SDS011;1158;48.750;9.078;2022-08-16T08:07:02;6.80;;;4.83;;
2299;SDS011;1158;48.750;9.078;2022-08-16T08:09:29;9.00;;;6.40;;
2299;SDS011;1158;48.750;9.078;2022-08-16T08:11:56;7.50;;;5.17;;
2299;SDS011;1158;48.750;9.078;2022-08-16T08:14:23;7.53;;;5.33;;
2299;SDS011;1158;48.750;9.078;2022-08-16T08:16:51;6.30;;;5.73;;
2299;SDS011;1158;48.750;9.078;2022-08-16T08:19:17;7.03;;;5.63;;
2299;SDS011;1158;48.750;9.078;2022-08-16T08:21:44;11.13;;;5.77;;
2299;SDS011;1158;48.750;9.078;2022-08-16T08:24:11;6.50;;;5.37;;
2299;SDS011;1158;48.750;9.078;2022-08-16T08:26:39;7.77;;;5.40;;
2299;SDS011;1158;48.750;9.078;2022-08-16T08:29:06;6.93;;;6.30;;
2299;SDS011;1158;48.750;9.078;2022-08-16T08:31:33;6.53;;;5.37;;
2299;SDS011;1158;48.750;9.078;2022-08-16T08:34:02;6.37;;;5.67;;
2299;SDS011;1158;48.750;9.078;2022-08-16T08:36:31;8.47;;;5.80;;
2299;SDS011;1158;48.750;9.078;2022-08-16T08:39:00;8.30;;;6.57;;
2299;SDS011;1158;48.750;9.078;2022-08-16T08:41:27;7.37;;;5.70;;
2299;SDS011;1158;48.750;9.078;2022-08-16T08:43:55;7.07;;;6.00;;
2299;SDS011;1158;48.750;9.078;2022-08-16T08:46:23;5.40;;;4.90;;
2299;SDS011;1158;48.750;9.078;2022-08-16T08:48:51;5.57;;;5.00;;
2299;SDS011;1158;48.750;9.078;2022-08-16T08:51:20;6.13;;;4.17;;
2299;SDS011;1158;48.750;9.078;2022-08-16T08:53:49;5.63;;;4.50;;
2299;SDS011;1158;48.750;9.078;2022-08-16T08:56:17;6.37;;;5.40;;
2299;SDS011;1158;48.750;9.078;2022-08-16T08:58:44;9.97;;;5.13;;
2299;SDS011;1158;48.750;9.078;2022-08-16T09:01:11;8.13;;;6.07;;
2299;SDS011;1158;48.750;9.078;2022-08-16T09:03:39;8.80;;;5.77;;
2299;SDS011;1158;48.750;9.078;2022-08-16T09:06:06;7.23;;;6.40;;
2299;SDS011;1158;48.750;9.078;2022-08-16T09:08:35;8.37;;;5.50;;
2299;SDS011;1158;48.750;9.078;2022-08-16T09:11:01;6.77;;;4.90;;
2299;SDS011;1158;48.750;9.078;2022-08-16T09:13:28;6.37;;;5.27;;
2299;SDS011;1158;48.750;9.078;2022-08-16T09:15:57;7.40;;;5.27;;
2299;SDS011;1158;48.750;9.078;2022-08-16T09:18:24;8.70;;;4.60;;
2299;SDS011;1158;48.750;9.078;2022-08-16T09:20:52;8.33;;;4.50;;
2299;SDS011;1158;48.750;9.078;2022-08-16T09:23:20;5.40;;;4.60;;
2299;SDS011;1158;48.750;9.078;2022-08-16T09:25:48;7.73;;;5.50;;
2299;SDS011;1158;48.750;9.078;2022-08-16T09:28:15;6.57;;;5.00;;
2299;SDS011;1158;48.750;9.078;2022-08-16T09:30:42;6.33;;;5.50;;
2299;SDS011;1158;48.750;9.078;2022-08-16T09:33:11;8.33;;;5.07;;
2299;SDS011;1158;48.750;9.078;2022-08-16T09:35:43;7.40;;;5.37;;
2299;SDS011;1158;48.750;9.078;2022-08-16T09:38:11;6.90;;;4.90;;
2299;SDS011;1158;48.750;9.078;2022-08-16T09:40:38;6.43;;;5.53;;
2299;SDS011;1158;48.750;9.078;2022-08-16T09:43:07;7.33;;;5.90;;
2299;SDS011;1158;48.750;9.078;2022-08-16T09:45:34;6.27;;;5.43;;
2299;SDS011;1158;48.750;9.078;2022-08-16T09:48:04;8.27;;;5.40;;
2299;SDS011;1158;48.750;9.078;2022-08-16T09:50:32;7.13;;;6.03;;
2299;SDS011;1158;48.750;9.078;2022-08-16T09:53:00;11.30;;;5.67;;
2299;SDS011;1158;48.750;9.078;2022-08-16T09:55:28;7.83;;;5.70;;
2299;SDS011;1158;48.750;9.078;2022-08-16T09:57:55;5.47;;;4.97;;
2299;SDS011;1158;48.750;9.078;2022-08-16T10:00:24;8.80;;;4.77;;
2299;SDS011;1158;48.750;9.078;2022-08-16T10:02:51;6.33;;;5.30;;
2299;SDS011;1158;48.750;9.078;2022-08-16T10:05:21;5.13;;;4.63;;
2299;SDS011;1158;48.750;9.078;2022-08-16T10:07:49;7.07;;;5.30;;
2299;SDS011;1158;48.750;9.078;2022-08-16T10:10:21;5.67;;;5.17;;
2299;SDS011;1158;48.750;9.078;2022-08-16T10:12:49;9.07;;;5.93;;
2299;SDS011;1158;48.750;9.078;2022-08-16T10:15:34;8.23;;;5.30;;
2299;SDS011;1158;48.750;9.078;2022-08-16T10:18:02;7.90;;;5.57;;
2299;SDS011;1158;48.750;9.078;2022-08-16T10:20:32;5.93;;;5.33;;
2299;SDS011;1158;48.750;9.078;2022-08-16T10:23:00;7.47;;;5.67;;
2299;SDS011;1158;48.750;9.078;2022-08-16T10:25:27;5.97;;;5.37;;
2299;SDS011;1158;48.750;9.078;2022-08-16T10:27:54;7.03;;;5.67;;
2299;SDS011;1158;48.750;9.078;2022-08-16T10:30:21;6.93;;;5.20;;
2299;SDS011;1158;48.750;9.078;2022-08-16T10:32:49;6.00;;;4.93;;
2299;SDS011;1158;48.750;9.078;2022-08-16T10:35:16;8.07;;;4.90;;
2299;SDS011;1158;48.750;9.078;2022-08-16T10:37:43;8.87;;;6.03;;
2299;SDS011;1158;48.750;9.078;2022-08-16T10:40:10;6.87;;;5.03;;
2299;SDS011;1158;48.750;9.078;2022-08-16T10:42:37;8.77;;;5.20;;
2299;SDS011;1158;48.750;9.078;2022-08-16T10:45:04;6.50;;;4.90;;
2299;SDS011;1158;48.750;9.078;2022-08-16T10:47:32;5.97;;;4.63;;
2299;SDS011;1158;48.750;9.078;2022-08-16T10:50:00;7.17;;;5.07;;
2299;SDS011;1158;48.750;9.078;2022-08-16T10:52:27;5.53;;;4.90;;
2299;SDS011;1158;48.750;9.078;2022-08-16T10:54:56;7.93;;;5.13;;
2299;SDS011;1158;48.750;9.078;2022-08-16T10:57:24;7.03;;;4.90;;
2299;SDS011;1158;48.750;9.078;2022-08-16T10:59:51;6.73;;;5.13;;
2299;SDS011;1158;48.750;9.078;2022-08-16T11:02:18;6.17;;;4.60;;
2299;SDS011;1158;48.750;9.078;2022-08-16T11:04:46;7.67;;;5.30;;
2299;SDS011;1158;48.750;9.078;2022-08-16T11:07:14;7.03;;;4.63;;
2299;SDS011;1158;48.750;9.078;2022-08-16T11:09:41;9.13;;;4.63;;
2299;SDS011;1158;48.750;9.078;2022-08-16T11:12:07;5.90;;;4.40;;
2299;SDS011;1158;48.750;9.078;2022-08-16T11:14:34;6.30;;;5.30;;
2299;SDS011;1158;48.750;9.078;2022-08-16T11:17:02;6.67;;;5.50;;
2299;SDS011;1158;48.750;9.078;2022-08-16T11:19:30;6.23;;;4.80;;
2299;SDS011;1158;48.750;9.078;2022-08-16T11:21:57;5.00;;;4.50;;
2299;SDS011;1158;48.750;9.078;2022-08-16T11:24:27;6.20;;;4.57;;
2299;SDS011;1158;48.750;9.078;2022-08-16T11:26:54;5.70;;;5.20;;
2299;SDS011;1158;48.750;9.078;2022-08-16T11:29:20;5.07;;;4.60;;
2299;SDS011;1158;48.750;9.078;2022-08-16T11:31:47;8.43;;;4.43;;
2299;SDS011;1158;48.750;9.078;2022-08-16T11:34:14;6.50;;;5.57;;
2299;SDS011;1158;48.750;9.078;2022-08-16T11:36:41;7.30;;;5.60;;
2299;SDS011;1158;48.750;9.078;2022-08-16T11:39:08;9.23;;;5.00;;
2299;SDS011;1158;48.750;9.078;2022-08-16T11:41:36;6.23;;;5.17;;
2299;SDS011;1158;48.750;9.078;2022-08-16T11:44:03;6.63;;;5.50;;
2299;SDS011;1158;48.750;9.078;2022-08-16T11:46:30;6.23;;;5.40;;
2299;SDS011;1158;48.750;9.078;2022-08-16T11:48:59;9.30;;;5.10;;
2299;SDS011;1158;48.750;9.078;2022-08-16T11:51:26;7.80;;;5.30;;
2299;SDS011;1158;48.750;9.078;2022-08-16T11:53:53;6.90;;;5.23;;
2299;SDS011;1158;48.750;9.078;2022-08-16T11:56:20;6.57;;;5.33;;
2299;SDS011;1158;48.750;9.078;2022-08-16T11:58:49;7.60;;;5.07;;
2299;SDS011;1158;48.750;9.078;2022-08-16T12:01:16;7.40;;;5.20;;
2299;SDS011;1158;48.750;9.078;2022-08-16T12:03:43;5.93;;;5.10;;
2299;SDS011;1158;48.750;9.078;2022-08-16T12:06:11;6.07;;;4.90;;
2299;SDS011;1158;48.750;9.078;2022-08-16T12:08:40;6.63;;;4.87;;
2299;SDS011;1158;48.750;9.078;2022-08-16T12:11:09;7.17;;;4.50;;
2299;SDS011;1158;48.750;9.078;2022-08-16T12:13:36;6.50;;;4.70;;
2299;SDS011;1158;48.750;9.078;2022-08-16T12:16:05;4.63;;;4.00;;
2299;SDS011;1158;48.750;9.078;2022-08-16T12:18:32;5.87;;;4.40;;
2299;SDS011;1158;48.750;9.078;2022-08-16T12:21:00;8.53;;;4.53;;
2299;SDS011;1158;48.750;9.078;2022-08-16T12:23:27;7.60;;;4.50;;
2299;SDS011;1158;48.750;9.078;2022-08-16T12:25:54;7.03;;;4.90;;
2299;SDS011;1158;48.750;9.078;2022-08-16T12:28:22;8.00;;;4.60;;
2299;SDS011;1158;48.750;9.078;2022-08-16T12:30:49;7.40;;;4.40;;
2299;SDS011;1158;48.750;9.078;2022-08-16T12:33:18;6.90;;;4.70;;
2299;SDS011;1158;48.750;9.078;2022-08-16T12:35:46;10.07;;;4.70;;
2299;SDS011;1158;48.750;9.078;2022-08-16T12:38:13;6.03;;;4.13;;
2299;SDS011;1158;48.750;9.078;2022-08-16T12:40:41;5.37;;;4.33;;
2299;SDS011;1158;48.750;9.078;2022-08-16T12:43:10;4.37;;;3.97;;
2299;SDS011;1158;48.750;9.078;2022-08-16T12:45:39;5.43;;;4.30;;
2299;SDS011;1158;48.750;9.078;2022-08-16T12:48:10;6.60;;;4.67;;
2299;SDS011;1158;48.750;9.078;2022-08-16T12:50:58;5.70;;;4.67;;
2299;SDS011;1158;48.750;9.078;2022-08-16T12:53:25;5.43;;;4.20;;
2299;SDS011;1158;48.750;9.078;2022-08-16T12:55:52;5.90;;;4.10;;
2299;SDS011;1158;48.750;9.078;2022-08-16T12:58:19;5.43;;;4.30;;
2299;SDS011;1158;48.750;9.078;2022-08-16T13:00:47;8.47;;;4.73;;
2299;SDS011;1158;48.750;9.078;2022-08-16T13:03:14;4.80;;;4.30;;
2299;SDS011;1158;48.750;9.078;2022-08-16T13:05:41;5.27;;;4.50;;
2299;SDS011;1158;48.750;9.078;2022-08-16T13:08:10;7.00;;;4.80;;
2299;SDS011;1158;48.750;9.078;2022-08-16T13:10:39;6.10;;;5.13;;
2299;SDS011;1158;48.750;9.078;2022-08-16T13:13:07;7.30;;;4.30;;
2299;SDS011;1158;48.750;9.078;2022-08-16T13:15:34;5.33;;;3.60;;
2299;SDS011;1158;48.750;9.078;2022-08-16T13:18:02;6.63;;;4.80;;
2299;SDS011;1158;48.750;9.078;2022-08-16T13:20:30;4.23;;;3.83;;
2299;SDS011;1158;48.750;9.078;2022-08-16T13:22:59;6.07;;;3.90;;
2299;SDS011;1158;48.750;9.078;2022-08-16T13:25:29;6.60;;;4.10;;
2299;SDS011;1158;48.750;9.078;2022-08-16T13:27:57;4.63;;;4.13;;
2299;SDS011;1158;48.750;9.078;2022-08-16T13:30:24;5.43;;;3.97;;
2299;SDS011;1158;48.750;9.078;2022-08-16T13:32:53;4.80;;;4.00;;
2299;SDS011;1158;48.750;9.078;2022-08-16T13:35:20;5.90;;;3.93;;
2299;SDS011;1158;48.750;9.078;2022-08-16T13:37:48;6.13;;;3.60;;
2299;SDS011;1158;48.750;9.078;2022-08-16T13:40:15;5.40;;;3.10;;
2299;SDS011;1158;48.750;9.078;2022-08-16T13:42:43;6.37;;;4.20;;
2299;SDS011;1158;48.750;9.078;2022-08-16T13:45:11;4.97;;;3.70;;
2299;SDS011;1158;48.750;9.078;2022-08-16T13:47:39;6.30;;;3.70;;
2299;SDS011;1158;48.750;9.078;2022-08-16T13:50:07;4.97;;;3.50;;
2299;SDS011;1158;48.750;9.078;2022-08-16T13:52:34;6.57;;;3.77;;
2299;SDS011;1158;48.750;9.078;2022-08-16T13:55:01;7.17;;;4.40;;
2299;SDS011;1158;48.750;9.078;2022-08-16T13:57:29;4.30;;;3.70;;
2299;SDS011;1158;48.750;9.078;2022-08-16T13:59:57;3.87;;;3.47;;
2299;SDS011;1158;48.750;9.078;2022-08-16T14:02:24;4.90;;;4.00;;
2299;SDS011;1158;48.750;9.078;2022-08-16T14:04:51;4.70;;;3.93;;
2299;SDS011;1158;48.750;9.078;2022-08-16T14:07:18;4.80;;;3.20;;
2299;SDS011;1158;48.750;9.078;2022-08-16T14:09:45;4.77;;;4.07;;
2299;SDS011;1158;48.750;9.078;2022-08-16T14:12:16;5.90;;;3.70;;
2299;SDS011;1158;48.750;9.078;2022-08-16T14:14:45;4.90;;;3.57;;
2299;SDS011;1158;48.750;9.078;2022-08-16T14:17:13;4.43;;;3.90;;
2299;SDS011;1158;48.750;9.078;2022-08-16T14:19:40;5.90;;;3.50;;
2299;SDS011;1158;48.750;9.078;2022-08-16T14:22:07;4.13;;;3.40;;
2299;SDS011;1158;48.750;9.078;2022-08-16T14:24:34;4.07;;;3.10;;
2299;SDS011;1158;48.750;9.078;2022-08-16T14:27:02;5.20;;;3.40;;
2299;SDS011;1158;48.750;9.078;2022-08-16T14:29:29;4.00;;;3.20;;
2299;SDS011;1158;48.750;9.078;2022-08-16T14:31:56;3.50;;;3.07;;
2299;SDS011;1158;48.750;9.078;2022-08-16T14:34:25;4.07;;;3.10;;
2299;SDS011;1158;48.750;9.078;2022-08-16T14:36:51;4.47;;;3.57;;
2299;SDS011;1158;48.750;9.078;2022-08-16T14:39:18;4.47;;;3.10;;
2299;SDS011;1158;48.750;9.078;2022-08-16T14:41:46;4.60;;;3.77;;
2299;SDS011;1158;48.750;9.078;2022-08-16T14:44:13;5.30;;;3.50;;
2299;SDS011;1158;48.750;9.078;2022-08-16T14:46:46;4.83;;;3.50;;
2299;SDS011;1158;48.750;9.078;2022-08-16T14:49:13;4.77;;;3.70;;
2299;SDS011;1158;48.750;9.078;2022-08-16T14:51:41;5.40;;;3.40;;
2299;SDS011;1158;48.750;9.078;2022-08-16T14:54:10;3.80;;;3.40;;
2299;SDS011;1158;48.750;9.078;2022-08-16T14:56:36;4.43;;;3.77;;
2299;SDS011;1158;48.750;9.078;2022-08-16T14:59:03;5.23;;;3.77;;
2299;SDS011;1158;48.750;9.078;2022-08-16T15:01:31;6.33;;;4.20;;
2299;SDS011;1158;48.750;9.078;2022-08-16T15:03:57;6.70;;;3.40;;
2299;SDS011;1158;48.750;9.078;2022-08-16T15:06:24;5.40;;;3.80;;
2299;SDS011;1158;48.750;9.078;2022-08-16T15:08:52;3.83;;;3.30;;
2299;SDS011;1158;48.750;9.078;2022-08-16T15:11:19;5.30;;;3.47;;
2299;SDS011;1158;48.750;9.078;2022-08-16T15:13:46;11.53;;;3.70;;
2299;SDS011;1158;48.750;9.078;2022-08-16T15:16:13;4.50;;;3.50;;
2299;SDS011;1158;48.750;9.078;2022-08-16T15:18:39;6.10;;;3.83;;